createdAt,value
2023-04-27T00:04:45.027Z,67.26
2023-04-27T00:14:51.501Z,67.24
2023-04-27T00:24:57.822Z,67.31
2023-04-27T00:35:04.534Z,67.92
2023-04-27T00:45:11.483Z,67.92
2023-04-27T00:55:18.110Z,67.94
2023-04-27T01:05:24.619Z,67.77
2023-04-27T01:15:31.234Z,67.68
2023-04-27T01:25:37.792Z,68.14
2023-04-27T01:35:44.484Z,68.04
2023-04-27T01:45:51.344Z,68.08
2023-04-27T01:55:57.997Z,68.16
2023-04-27T02:06:04.886Z,68.14
2023-04-27T02:16:11.636Z,68.29
2023-04-27T02:26:18.082Z,68.50
2023-04-27T02:36:24.807Z,68.54
2023-04-27T02:46:31.426Z,68.51
2023-04-27T02:56:37.940Z,68.56
2023-04-27T03:06:44.609Z,68.98
2023-04-27T03:16:51.125Z,68.80
2023-04-27T03:26:58.044Z,68.78
2023-04-27T03:37:04.657Z,68.79
2023-04-27T03:47:11.131Z,68.87
2023-04-27T03:57:17.859Z,69.02
2023-04-27T04:07:24.531Z,68.77
2023-04-27T04:17:31.547Z,68.77
2023-04-27T04:27:38.826Z,69.59
2023-04-27T04:37:41.701Z,73.87
2023-04-27T04:47:45.043Z,78.09
2023-04-27T04:57:50.343Z,74.42
2023-04-27T05:07:55.731Z,73.77
2023-04-27T05:18:01.297Z,74.75
2023-04-27T05:28:10.220Z,71.34
2023-04-27T05:38:17.023Z,69.30
2023-04-27T05:48:23.081Z,68.24
2023-04-27T05:58:29.479Z,67.37
2023-04-27T06:08:35.233Z,66.83
2023-04-27T06:18:41.087Z,66.51
2023-04-27T06:28:47.164Z,66.27
2023-04-27T06:38:53.152Z,66.01
2023-04-27T06:48:58.983Z,65.75
2023-04-27T07:00:24.134Z,64.97
2023-04-27T07:10:29.291Z,64.20
2023-04-27T07:20:35.143Z,63.09
2023-04-27T07:30:40.899Z,62.38
2023-04-27T07:40:46.745Z,59.78
2023-04-27T07:50:52.602Z,60.21
2023-04-27T08:01:01.811Z,60.84
2023-04-27T08:11:09.060Z,61.97
2023-04-27T08:21:14.679Z,61.84
2023-04-27T08:31:20.677Z,61.67
2023-04-27T08:41:26.892Z,61.36
2023-04-27T08:51:32.900Z,61.20
2023-04-27T09:01:39.223Z,60.67
2023-04-27T09:11:45.140Z,60.78
2023-04-27T09:21:50.699Z,59.98
2023-04-27T09:31:56.206Z,60.60
2023-04-27T09:42:01.640Z,60.87
2023-04-27T09:52:07.676Z,61.02
2023-04-27T10:02:24.109Z,61.30
2023-04-27T10:12:23.556Z,61.61
2023-04-27T10:22:28.871Z,61.80
2023-04-27T10:32:35.422Z,62.00
2023-04-27T10:42:43.435Z,61.97
2023-04-27T10:52:49.289Z,62.14
2023-04-27T11:02:54.765Z,62.35
2023-04-27T11:13:00.531Z,62.40
2023-04-27T11:23:07.995Z,62.64
2023-04-27T11:33:13.598Z,62.86
2023-04-27T11:43:19.281Z,62.97
2023-04-27T11:53:25.084Z,63.02
2023-04-27T12:03:31.046Z,63.11
2023-04-27T12:13:36.647Z,63.34
2023-04-27T12:23:42.389Z,63.41
2023-04-27T12:33:49.406Z,63.47
2023-04-27T12:43:55.453Z,63.59
2023-04-27T12:54:01.509Z,63.70
2023-04-27T13:04:07.127Z,63.69
2023-04-27T13:14:13.929Z,63.80
2023-04-27T13:24:19.573Z,63.84
2023-04-27T13:34:24.988Z,63.91
2023-04-27T13:44:30.868Z,63.95
2023-04-27T13:54:36.915Z,64.00
2023-04-27T14:04:42.214Z,64.01
2023-04-27T14:14:48.052Z,64.07
2023-04-27T14:24:53.907Z,64.09
2023-04-27T14:35:01.530Z,64.10
2023-04-27T14:45:06.635Z,64.25
2023-04-27T14:55:12.381Z,64.32
2023-04-27T15:05:18.204Z,64.34
2023-04-27T15:15:23.199Z,64.48
2023-04-27T15:25:28.989Z,64.57
2023-04-27T15:35:35.179Z,64.64
2023-04-27T15:45:40.964Z,64.85
2023-04-27T15:55:46.937Z,64.99
2023-04-27T16:05:52.599Z,65.14
2023-04-27T16:15:58.542Z,65.28
2023-04-27T16:26:04.559Z,65.43
2023-04-27T16:36:10.595Z,65.47
2023-04-27T16:46:17.285Z,65.48
2023-04-27T16:56:24.677Z,65.62
2023-04-27T17:06:30.429Z,65.77
2023-04-27T17:16:36.121Z,59.99
2023-04-27T17:26:41.417Z,60.47
2023-04-27T17:36:46.313Z,59.03
2023-04-27T17:46:53.149Z,58.56
2023-04-27T17:56:59.870Z,59.87
2023-04-27T18:07:06.391Z,60.71
2023-04-27T18:17:16.287Z,62.13
2023-04-27T18:27:24.936Z,62.64
2023-04-27T18:37:31.757Z,63.47
2023-04-27T18:47:38.362Z,63.90
2023-04-27T18:57:44.943Z,64.21
2023-04-27T19:07:54.521Z,64.38
2023-04-27T19:18:06.846Z,64.80
2023-04-27T19:28:11.963Z,65.67
2023-04-27T19:38:19.098Z,66.25
2023-04-27T19:48:25.517Z,66.69
2023-04-27T19:58:31.913Z,66.90
2023-04-27T20:08:38.306Z,67.13
2023-04-27T20:18:46.731Z,67.63
2023-04-27T20:28:55.754Z,67.91
2023-04-27T20:39:02.002Z,68.04
2023-04-27T20:49:08.197Z,68.03
2023-04-27T20:59:14.751Z,67.81
2023-04-27T21:09:21.038Z,67.89
2023-04-27T21:19:27.146Z,67.75
2023-04-27T21:29:33.510Z,67.77
2023-04-27T21:39:39.617Z,67.93
2023-04-27T21:49:46.076Z,67.91
2023-04-27T21:59:52.384Z,67.90
2023-04-27T22:09:58.813Z,67.81
2023-04-27T22:20:04.838Z,67.72
2023-04-27T22:30:10.927Z,67.58
2023-04-27T22:40:16.241Z,67.70
2023-04-27T22:50:22.509Z,67.74
2023-04-27T23:00:28.704Z,67.98
2023-04-27T23:10:34.435Z,68.67
2023-04-27T23:20:40.970Z,68.44
2023-04-27T23:30:47.323Z,68.37
2023-04-27T23:40:53.509Z,68.37
2023-04-27T23:50:59.728Z,68.27
